createdAt,value
2023-01-09T00:00:56.082Z,60.99
2023-01-09T00:03:22.862Z,60.48
2023-01-09T00:05:49.441Z,62.23
2023-01-09T00:08:16.131Z,62.59
2023-01-09T00:10:42.763Z,64.52
2023-01-09T00:13:14.237Z,65.02
2023-01-09T00:15:41.659Z,64.71
2023-01-09T00:18:08.341Z,64.05
2023-01-09T00:20:36.399Z,63.71
2023-01-09T00:23:03.691Z,63.44
2023-01-09T00:25:30.327Z,63.44
2023-01-09T00:27:56.901Z,65.49
2023-01-09T00:30:25.057Z,65.75
2023-01-09T00:32:51.713Z,65.22
2023-01-09T00:35:19.174Z,65.89
2023-01-09T00:37:46.247Z,66.38
2023-01-09T00:40:14.532Z,64.82
2023-01-09T00:42:43.149Z,64.96
2023-01-09T00:45:14.488Z,64.60
2023-01-09T00:47:48.666Z,65.25
2023-01-09T00:50:20.583Z,64.51
2023-01-09T00:52:48.639Z,64.02
2023-01-09T00:55:16.030Z,62.12
2023-01-09T00:57:42.832Z,60.64
2023-01-09T01:00:10.418Z,59.84
2023-01-09T01:02:37.116Z,59.54
2023-01-09T01:05:22.229Z,59.75
2023-01-09T01:07:49.167Z,59.57
2023-01-09T01:10:20.541Z,59.39
2023-01-09T01:12:49.213Z,59.42
2023-01-09T01:15:16.628Z,59.60
2023-01-09T01:17:43.928Z,59.40
2023-01-09T01:20:14.168Z,59.29
2023-01-09T01:22:42.623Z,58.62
2023-01-09T01:25:11.142Z,58.72
2023-01-09T01:27:39.780Z,58.29
2023-01-09T01:30:08.784Z,58.47
2023-01-09T01:32:37.240Z,58.23
2023-01-09T01:35:04.295Z,58.90
2023-01-09T01:37:31.265Z,61.05
2023-01-09T01:39:57.940Z,59.09
2023-01-09T01:42:25.084Z,58.97
2023-01-09T01:45:12.846Z,58.95
2023-01-09T01:47:57.666Z,58.33
2023-01-09T01:50:27.129Z,58.81
2023-01-09T01:53:02.291Z,60.36
2023-01-09T01:55:29.096Z,59.75
2023-01-09T01:57:59.797Z,59.24
2023-01-09T02:00:31.635Z,59.06
2023-01-09T02:03:00.937Z,59.08
2023-01-09T02:05:28.232Z,59.58
2023-01-09T02:07:54.974Z,59.24
2023-01-09T02:10:24.981Z,59.18
2023-01-09T02:12:51.630Z,58.78
2023-01-09T02:15:19.691Z,58.25
2023-01-09T02:17:52.580Z,58.31
2023-01-09T02:20:31.895Z,58.35
2023-01-09T02:23:33.774Z,58.26
2023-01-09T02:26:19.113Z,58.75
2023-01-09T02:29:23.535Z,58.46
2023-01-09T02:32:07.759Z,58.48
2023-01-09T02:34:59.491Z,59.09
2023-01-09T02:37:56.045Z,59.02
2023-01-09T02:40:35.387Z,59.04
2023-01-09T02:43:03.602Z,58.79
2023-01-09T02:45:30.769Z,59.26
2023-01-09T02:47:57.479Z,60.16
2023-01-09T02:50:30.914Z,60.98
2023-01-09T02:53:06.761Z,60.44
2023-01-09T02:55:58.573Z,59.55
2023-01-09T02:58:54.826Z,60.04
2023-01-09T03:02:11.013Z,59.77
2023-01-09T03:04:47.853Z,59.28
2023-01-09T03:07:26.578Z,59.62
2023-01-09T03:09:57.616Z,59.60
2023-01-09T03:12:27.552Z,59.00
2023-01-09T03:14:58.526Z,59.20
2023-01-09T03:17:32.216Z,59.78
2023-01-09T03:20:04.629Z,59.77
2023-01-09T03:22:31.338Z,60.05
2023-01-09T03:24:58.031Z,60.12
2023-01-09T03:27:25.058Z,60.61
2023-01-09T03:29:53.299Z,60.35
2023-01-09T03:32:20.455Z,60.74
2023-01-09T03:34:47.022Z,60.64
2023-01-09T03:37:14.028Z,60.30
2023-01-09T03:39:40.767Z,60.11
2023-01-09T03:42:07.312Z,60.01
2023-01-09T03:44:33.955Z,60.93
2023-01-09T03:47:00.745Z,61.16
2023-01-09T03:49:27.343Z,62.17
2023-01-09T03:51:54.055Z,61.63
2023-01-09T03:54:20.586Z,60.70
2023-01-09T03:56:47.230Z,60.30
2023-01-09T03:59:13.840Z,60.10
2023-01-09T04:01:40.591Z,60.68
2023-01-09T04:04:07.423Z,60.17
2023-01-09T04:06:33.963Z,61.07
2023-01-09T04:09:00.695Z,61.27
2023-01-09T04:11:27.206Z,61.09
2023-01-09T04:13:53.834Z,60.95
2023-01-09T04:16:20.646Z,60.38
2023-01-09T04:18:47.260Z,60.90
2023-01-09T04:21:13.900Z,61.48
2023-01-09T04:23:40.703Z,61.59
2023-01-09T04:26:08.001Z,62.25
2023-01-09T04:28:34.601Z,62.92
2023-01-09T04:31:02.558Z,62.15
2023-01-09T04:33:29.581Z,62.21
2023-01-09T04:35:56.552Z,63.59
2023-01-09T04:38:23.158Z,63.64
2023-01-09T04:40:49.788Z,65.27
2023-01-09T04:43:18.103Z,65.34
2023-01-09T04:45:45.413Z,65.51
2023-01-09T04:48:12.182Z,65.15
2023-01-09T04:50:38.705Z,64.90
2023-01-09T04:53:06.033Z,64.92
2023-01-09T04:55:33.177Z,63.45
2023-01-09T04:58:00.131Z,65.00
2023-01-09T05:00:26.862Z,64.84
2023-01-09T05:02:53.583Z,64.17
2023-01-09T05:05:20.469Z,63.40
2023-01-09T05:07:47.217Z,63.94
2023-01-09T05:10:13.797Z,63.31
2023-01-09T05:12:40.498Z,62.51
2023-01-09T05:15:08.528Z,64.42
2023-01-09T05:17:35.448Z,63.23
2023-01-09T05:20:02.249Z,69.56
2023-01-09T05:22:28.751Z,69.80
2023-01-09T05:24:55.602Z,69.54
2023-01-09T05:27:22.152Z,69.27
2023-01-09T05:29:48.799Z,70.23
2023-01-09T05:32:16.274Z,69.29
2023-01-09T05:34:43.317Z,71.04
2023-01-09T05:37:09.912Z,69.58
2023-01-09T05:39:36.633Z,69.35
2023-01-09T05:42:03.310Z,68.47
2023-01-09T05:44:29.912Z,68.36
2023-01-09T05:46:56.532Z,68.79
2023-01-09T05:49:23.105Z,68.58
2023-01-09T05:51:49.833Z,69.04
2023-01-09T05:54:16.484Z,67.52
2023-01-09T05:56:43.116Z,67.20
2023-01-09T05:59:09.770Z,66.79
2023-01-09T06:01:36.423Z,67.35
2023-01-09T06:04:03.125Z,68.29
2023-01-09T06:06:29.696Z,67.00
2023-01-09T06:08:56.409Z,66.12
2023-01-09T06:11:23.067Z,66.21
2023-01-09T06:13:49.886Z,65.55
2023-01-09T06:16:16.609Z,65.18
2023-01-09T06:18:43.174Z,65.03
2023-01-09T06:21:09.985Z,64.82
2023-01-09T06:23:36.636Z,64.96
2023-01-09T06:26:03.522Z,65.19
2023-01-09T06:28:30.222Z,67.38
2023-01-09T06:30:56.809Z,68.40
2023-01-09T06:33:23.460Z,68.18
2023-01-09T06:35:50.253Z,70.04
2023-01-09T06:38:16.800Z,70.11
2023-01-09T06:40:43.521Z,71.08
2023-01-09T06:43:10.101Z,69.04
2023-01-09T06:45:36.789Z,69.98
2023-01-09T06:48:03.688Z,69.14
2023-01-09T06:50:30.405Z,69.97
2023-01-09T06:52:57.025Z,69.90
2023-01-09T06:55:23.924Z,72.07
2023-01-09T06:57:50.716Z,71.04
2023-01-09T07:00:18.209Z,73.45
2023-01-09T07:02:45.001Z,72.10
2023-01-09T07:05:12.118Z,74.30
2023-01-09T07:07:41.984Z,73.17
2023-01-09T07:10:10.342Z,72.30
2023-01-09T07:12:37.389Z,72.98
2023-01-09T07:15:04.196Z,72.50
2023-01-09T07:17:30.910Z,73.39
2023-01-09T07:19:57.525Z,72.64
2023-01-09T07:22:24.277Z,72.59
2023-01-09T07:24:51.009Z,73.29
2023-01-09T07:27:18.493Z,73.70
2023-01-09T07:29:45.024Z,73.77
2023-01-09T07:32:11.633Z,72.74
2023-01-09T07:34:38.273Z,73.61
2023-01-09T07:37:05.054Z,73.24
2023-01-09T07:39:31.630Z,73.31
2023-01-09T07:41:58.442Z,73.46
2023-01-09T07:44:26.035Z,73.73
2023-01-09T07:46:52.543Z,73.49
2023-01-09T07:49:19.370Z,73.93
2023-01-09T07:51:48.341Z,73.93
2023-01-09T07:54:15.407Z,73.84
2023-01-09T07:56:42.922Z,73.21
2023-01-09T07:59:09.662Z,74.04
2023-01-09T08:01:36.397Z,73.14
2023-01-09T08:04:03.120Z,73.91
2023-01-09T08:06:30.260Z,73.56
2023-01-09T08:08:57.779Z,73.54
2023-01-09T08:11:25.052Z,73.99
2023-01-09T08:13:51.928Z,73.15
2023-01-09T08:16:18.637Z,73.67
2023-01-09T08:18:45.242Z,73.44
2023-01-09T08:21:12.411Z,73.49
2023-01-09T08:23:39.174Z,72.07
2023-01-09T08:26:06.047Z,72.86
2023-01-09T08:28:32.964Z,72.25
2023-01-09T08:30:59.650Z,72.02
2023-01-09T08:33:26.705Z,71.98
2023-01-09T08:35:54.257Z,71.88
2023-01-09T08:38:22.351Z,70.87
2023-01-09T08:40:49.652Z,70.97
2023-01-09T08:43:35.075Z,71.08
2023-01-09T08:46:20.464Z,70.87
2023-01-09T08:48:48.451Z,70.01
2023-01-09T08:51:15.131Z,70.72
2023-01-09T08:53:41.885Z,68.55
2023-01-09T08:56:08.427Z,68.78
2023-01-09T08:58:35.131Z,69.11
2023-01-09T09:01:04.783Z,69.33
2023-01-09T09:03:31.485Z,69.60
2023-01-09T09:05:58.053Z,69.85
2023-01-09T09:08:24.709Z,69.74
2023-01-09T09:10:51.287Z,69.48
2023-01-09T09:13:17.848Z,70.46
2023-01-09T09:15:44.587Z,71.50
2023-01-09T09:18:11.236Z,71.08
2023-01-09T09:20:39.481Z,70.13
2023-01-09T09:23:08.264Z,71.54
2023-01-09T09:25:38.239Z,70.95
2023-01-09T09:28:05.729Z,70.96
2023-01-09T09:30:32.485Z,71.30
2023-01-09T09:32:59.085Z,71.28
2023-01-09T09:35:25.826Z,70.80
2023-01-09T09:37:56.581Z,71.05
2023-01-09T09:41:01.943Z,71.12
2023-01-09T09:44:06.213Z,70.51
2023-01-09T09:46:46.318Z,71.44
2023-01-09T09:49:25.242Z,71.20
2023-01-09T09:52:01.028Z,70.12
2023-01-09T09:54:34.311Z,68.48
2023-01-09T09:57:04.006Z,69.31
2023-01-09T09:59:34.475Z,69.30
2023-01-09T10:02:15.341Z,68.70
2023-01-09T10:04:49.310Z,67.94
2023-01-09T10:07:22.693Z,68.54
2023-01-09T10:09:54.375Z,68.17
2023-01-09T10:12:37.876Z,67.50
2023-01-09T10:15:20.757Z,66.99
2023-01-09T10:18:12.326Z,66.41
2023-01-09T10:21:08.883Z,64.41
2023-01-09T10:23:44.892Z,65.12
2023-01-09T10:26:22.132Z,65.76
2023-01-09T10:29:10.706Z,66.03
2023-01-09T10:31:43.155Z,65.89
2023-01-09T10:34:27.939Z,65.80
2023-01-09T10:37:09.963Z,65.60
2023-01-09T10:39:47.284Z,66.07
2023-01-09T10:42:21.099Z,66.56
2023-01-09T10:44:59.963Z,66.76
2023-01-09T10:47:34.342Z,66.18
2023-01-09T10:50:14.706Z,67.21
2023-01-09T10:52:42.776Z,65.53
2023-01-09T10:55:32.201Z,66.39
2023-01-09T10:58:02.818Z,66.90
2023-01-09T11:00:29.530Z,67.04
2023-01-09T11:02:56.251Z,65.26
2023-01-09T11:05:30.574Z,67.26
2023-01-09T11:08:14.022Z,66.59
2023-01-09T11:10:55.613Z,67.40
2023-01-09T11:13:33.927Z,66.79
2023-01-09T11:16:00.660Z,66.13
2023-01-09T11:18:27.964Z,67.29
2023-01-09T11:20:56.371Z,66.38
2023-01-09T11:23:24.058Z,67.15
2023-01-09T11:25:56.524Z,66.17
2023-01-09T11:28:23.292Z,66.07
2023-01-09T11:31:01.216Z,67.33
2023-01-09T11:33:36.760Z,66.92
2023-01-09T11:36:14.947Z,66.38
2023-01-09T11:38:51.196Z,66.44
2023-01-09T11:41:22.282Z,66.24
2023-01-09T11:43:52.101Z,65.49
2023-01-09T11:46:37.182Z,65.99
2023-01-09T11:49:26.072Z,65.71
2023-01-09T11:52:22.226Z,65.71
2023-01-09T11:55:05.884Z,66.36
2023-01-09T11:57:34.621Z,66.77
2023-01-09T12:00:22.873Z,65.44
2023-01-09T12:03:07.546Z,65.41
2023-01-09T12:05:56.068Z,66.43
2023-01-09T12:08:36.955Z,65.70
2023-01-09T12:11:39.802Z,66.97
2023-01-09T12:14:16.511Z,67.25
2023-01-09T12:17:07.099Z,66.90
2023-01-09T12:20:11.356Z,67.08
2023-01-09T12:22:57.402Z,66.96
2023-01-09T12:25:49.110Z,66.58
2023-01-09T12:28:59.189Z,67.02
2023-01-09T12:31:30.844Z,66.85
2023-01-09T12:34:17.756Z,66.76
2023-01-09T12:36:53.659Z,66.15
2023-01-09T12:39:52.634Z,65.45
2023-01-09T12:42:26.968Z,65.60
2023-01-09T12:45:02.858Z,65.71
2023-01-09T12:47:47.039Z,65.36
2023-01-09T12:50:32.091Z,64.53
2023-01-09T12:53:25.813Z,64.75
2023-01-09T12:56:19.860Z,64.51
2023-01-09T12:58:55.616Z,64.24
2023-01-09T13:01:34.632Z,64.33
2023-01-09T13:04:15.508Z,64.06
2023-01-09T13:06:51.025Z,64.30
2023-01-09T13:09:47.927Z,64.68
2023-01-09T13:12:21.463Z,64.69
2023-01-09T13:14:54.061Z,64.86
2023-01-09T13:17:42.358Z,65.31
2023-01-09T13:20:39.264Z,65.85
2023-01-09T13:23:06.736Z,65.52
2023-01-09T13:25:45.759Z,65.14
2023-01-09T13:28:18.740Z,65.40
2023-01-09T13:31:04.190Z,65.30
2023-01-09T13:33:37.056Z,65.33
2023-01-09T13:36:04.952Z,64.89
2023-01-09T13:38:35.115Z,64.32
2023-01-09T13:41:38.423Z,65.17
2023-01-09T13:44:25.346Z,64.78
2023-01-09T13:46:55.899Z,63.96
2023-01-09T13:49:41.477Z,63.71
2023-01-09T13:52:30.071Z,64.94
2023-01-09T13:54:58.289Z,64.26
2023-01-09T13:57:36.434Z,64.50
2023-01-09T14:00:12.318Z,64.58
2023-01-09T14:02:38.950Z,64.68
2023-01-09T14:05:31.679Z,64.58
2023-01-09T14:08:20.301Z,65.76
2023-01-09T14:10:48.709Z,65.77
2023-01-09T14:13:28.996Z,66.33
2023-01-09T14:16:27.158Z,65.95
2023-01-09T14:19:05.206Z,65.41
2023-01-09T14:21:44.694Z,65.83
2023-01-09T14:24:19.613Z,65.76
2023-01-09T14:27:36.280Z,66.16
2023-01-09T14:30:27.629Z,66.04
2023-01-09T14:33:00.095Z,65.37
2023-01-09T14:35:48.312Z,65.20
2023-01-09T14:38:45.907Z,65.65
2023-01-09T14:41:15.562Z,65.33
2023-01-09T14:43:57.272Z,65.03
2023-01-09T14:46:25.635Z,64.94
2023-01-09T14:49:00.615Z,64.98
2023-01-09T14:51:31.605Z,64.64
2023-01-09T14:54:00.743Z,65.15
2023-01-09T14:56:31.667Z,65.18
2023-01-09T14:59:12.551Z,64.42
2023-01-09T15:01:43.738Z,64.34
2023-01-09T15:04:36.257Z,64.78
2023-01-09T15:07:04.545Z,63.16
2023-01-09T15:09:45.129Z,65.32
2023-01-09T15:12:18.874Z,63.99
2023-01-09T15:14:49.969Z,64.65
2023-01-09T15:17:26.343Z,64.48
2023-01-09T15:19:54.109Z,64.61
2023-01-09T15:22:29.185Z,64.61
2023-01-09T15:24:56.231Z,64.18
2023-01-09T15:27:23.433Z,64.47
2023-01-09T15:29:51.513Z,63.98
2023-01-09T16:13:16.786Z,63.69
2023-01-09T16:15:46.017Z,64.03
2023-01-09T16:18:15.701Z,64.01
2023-01-09T16:20:43.353Z,63.50
2023-01-09T16:23:24.212Z,64.00
2023-01-09T16:26:02.085Z,63.26
2023-01-09T16:28:30.746Z,63.31
2023-01-09T16:31:00.848Z,63.26
2023-01-09T16:33:30.293Z,64.22
2023-01-09T16:35:58.732Z,63.48
2023-01-09T16:38:28.650Z,62.82
2023-01-09T16:41:18.368Z,63.47
2023-01-09T16:43:45.696Z,64.61
2023-01-09T16:46:14.239Z,63.60
2023-01-09T16:48:41.109Z,64.22
2023-01-09T16:51:17.977Z,64.01
2023-01-09T16:53:44.956Z,63.87
2023-01-09T16:56:22.175Z,64.69
2023-01-09T16:58:49.350Z,64.66
2023-01-09T17:01:16.352Z,64.80
2023-01-09T17:03:44.126Z,64.26
2023-01-09T17:06:19.576Z,64.19
2023-01-09T17:08:47.011Z,63.14
2023-01-09T17:11:32.544Z,63.80
2023-01-09T17:14:00.013Z,63.11
2023-01-09T17:16:28.272Z,64.72
2023-01-09T17:18:55.208Z,63.88
2023-01-09T17:21:29.044Z,63.53
2023-01-09T17:24:25.351Z,64.41
2023-01-09T17:27:11.036Z,64.14
2023-01-09T17:29:37.719Z,64.29
2023-01-09T17:32:04.553Z,64.79
2023-01-09T17:34:31.495Z,64.90
2023-01-09T17:36:58.767Z,62.71
2023-01-09T17:39:25.428Z,60.44
2023-01-09T17:41:51.997Z,61.22
2023-01-09T17:44:18.646Z,64.88
2023-01-09T17:46:45.205Z,63.71
2023-01-09T17:49:20.078Z,64.25
2023-01-09T17:51:46.833Z,64.83
2023-01-09T17:54:14.533Z,65.81
2023-01-09T17:56:49.154Z,64.03
2023-01-09T17:59:16.228Z,64.77
2023-01-09T18:01:43.805Z,66.22
2023-01-09T18:04:11.087Z,65.74
2023-01-09T18:06:37.864Z,65.57
2023-01-09T18:09:05.870Z,65.42
2023-01-09T18:11:32.761Z,64.99
2023-01-09T18:13:59.568Z,66.33
2023-01-09T18:16:27.483Z,67.88
2023-01-09T18:18:57.616Z,67.12
2023-01-09T18:21:25.700Z,66.94
2023-01-09T18:23:52.753Z,66.28
2023-01-09T18:26:22.250Z,66.75
2023-01-09T18:28:52.303Z,66.09
2023-01-09T18:31:22.832Z,66.38
2023-01-09T18:33:54.653Z,66.46
2023-01-09T18:36:30.323Z,66.40
2023-01-09T18:38:59.343Z,67.84
2023-01-09T18:41:27.058Z,66.72
2023-01-09T18:43:56.135Z,67.30
2023-01-09T18:46:25.930Z,66.78
2023-01-09T18:48:53.189Z,66.84
2023-01-09T18:51:21.259Z,66.80
2023-01-09T18:53:54.216Z,66.98
2023-01-09T18:56:21.610Z,66.83
2023-01-09T18:58:48.820Z,67.59
2023-01-09T19:01:16.892Z,66.43
2023-01-09T19:03:45.219Z,67.63
2023-01-09T19:06:12.918Z,66.96
2023-01-09T19:08:39.655Z,67.49
2023-01-09T19:11:15.802Z,67.23
2023-01-09T19:13:44.225Z,67.71
2023-01-09T19:16:11.852Z,66.42
2023-01-09T19:18:41.724Z,66.14
2023-01-09T19:21:17.315Z,64.65
2023-01-09T19:23:45.212Z,65.10
2023-01-09T19:26:23.569Z,65.12
2023-01-09T19:28:52.175Z,66.00
2023-01-09T19:31:19.134Z,66.63
2023-01-09T19:33:47.220Z,66.04
2023-01-09T19:36:14.047Z,66.80
2023-01-09T19:38:40.737Z,66.32
2023-01-09T19:41:14.294Z,66.48
2023-01-09T19:43:41.919Z,65.50
2023-01-09T19:46:11.039Z,65.29
2023-01-09T19:48:38.059Z,66.03
2023-01-09T19:51:06.903Z,65.99
2023-01-09T19:53:35.382Z,66.45
2023-01-09T19:56:18.738Z,65.29
2023-01-09T19:58:51.771Z,64.29
2023-01-09T20:01:23.746Z,63.56
2023-01-09T20:03:50.865Z,63.30
2023-01-09T20:06:24.113Z,64.17
2023-01-09T20:08:56.542Z,64.18
2023-01-09T20:11:25.183Z,64.23
2023-01-09T20:13:52.195Z,64.54
2023-01-09T20:16:28.590Z,65.55
2023-01-09T20:18:57.891Z,66.18
2023-01-09T20:21:26.537Z,65.55
2023-01-09T20:23:55.494Z,65.66
2023-01-09T20:26:23.380Z,65.50
2023-01-09T20:28:50.817Z,66.42
2023-01-09T20:31:20.626Z,66.02
2023-01-09T20:33:49.152Z,65.39
2023-01-09T20:36:15.842Z,66.11
2023-01-09T20:38:42.730Z,65.51
2023-01-09T20:41:22.664Z,65.36
2023-01-09T20:44:11.395Z,64.73
2023-01-09T20:46:40.645Z,64.70
2023-01-09T20:49:10.032Z,64.51
2023-01-09T20:51:40.891Z,63.32
2023-01-09T20:54:07.640Z,62.94
2023-01-09T20:56:34.154Z,61.30
2023-01-09T20:59:01.241Z,61.95
2023-01-09T21:01:28.636Z,63.17
2023-01-09T21:03:56.429Z,63.83
2023-01-09T21:06:25.405Z,64.43
2023-01-09T21:08:53.121Z,63.34
2023-01-09T21:11:22.972Z,63.74
2023-01-09T21:13:50.160Z,62.10
2023-01-09T21:16:21.281Z,62.39
2023-01-09T21:18:48.840Z,61.64
2023-01-09T21:21:19.396Z,60.12
2023-01-09T21:23:53.056Z,62.33
2023-01-09T21:26:22.746Z,61.37
2023-01-09T21:28:55.258Z,61.04
2023-01-09T21:31:33.100Z,61.40
2023-01-09T21:34:04.779Z,60.42
2023-01-09T21:36:32.176Z,59.02
2023-01-09T21:39:00.070Z,60.09
2023-01-09T21:41:56.329Z,61.96
2023-01-09T21:44:41.281Z,61.90
2023-01-09T21:47:07.967Z,60.89
2023-01-09T21:49:36.082Z,59.51
2023-01-09T21:52:04.663Z,59.99
2023-01-09T21:54:32.037Z,59.23
2023-01-09T21:56:59.369Z,58.92
2023-01-09T21:59:27.359Z,59.43
2023-01-09T22:01:53.978Z,59.56
2023-01-09T22:04:22.960Z,60.48
2023-01-09T22:06:49.913Z,62.35
2023-01-09T22:09:17.306Z,63.33
2023-01-09T22:11:44.175Z,63.65
2023-01-09T22:14:19.100Z,62.93
2023-01-09T22:16:46.259Z,61.65
2023-01-09T22:19:14.303Z,63.41
2023-01-09T22:21:41.359Z,64.55
2023-01-09T22:24:09.341Z,66.04
2023-01-09T22:26:35.953Z,66.56
2023-01-09T22:29:02.650Z,67.77
2023-01-09T22:31:29.462Z,67.69
2023-01-09T22:33:57.885Z,68.62
2023-01-09T22:36:26.636Z,68.32
2023-01-09T22:38:57.723Z,68.58
2023-01-09T22:41:26.190Z,69.20
2023-01-09T22:43:53.122Z,68.84
2023-01-09T22:46:19.933Z,68.53
2023-01-09T22:48:47.724Z,69.25
2023-01-09T22:51:17.069Z,69.11
2023-01-09T22:53:44.271Z,68.15
2023-01-09T22:56:19.623Z,67.58
2023-01-09T22:58:54.314Z,67.83
2023-01-09T23:01:22.407Z,67.77
2023-01-09T23:03:49.101Z,67.78
2023-01-09T23:06:21.609Z,67.74
2023-01-09T23:08:53.150Z,68.66
2023-01-09T23:11:47.937Z,68.68
2023-01-09T23:14:14.756Z,69.35
2023-01-09T23:16:41.513Z,69.71
2023-01-09T23:19:09.868Z,69.14
2023-01-09T23:21:37.012Z,68.67
2023-01-09T23:24:04.104Z,69.23
2023-01-09T23:26:30.730Z,68.88
2023-01-09T23:28:57.339Z,69.00
2023-01-09T23:31:24.137Z,68.67
2023-01-09T23:33:50.864Z,68.64
2023-01-09T23:36:17.380Z,68.81
2023-01-09T23:38:44.799Z,67.99
2023-01-09T23:41:11.387Z,68.85
2023-01-09T23:43:38.014Z,68.50
2023-01-09T23:46:04.819Z,68.02
2023-01-09T23:48:31.434Z,68.79
2023-01-09T23:50:58.127Z,68.49
2023-01-09T23:53:25.040Z,69.11
2023-01-09T23:55:55.332Z,67.84
2023-01-09T23:58:22.503Z,68.49
